createdAt,value
2023-03-29T00:01:50.061Z,8.40
2023-03-29T00:04:20.003Z,8.40
2023-03-29T00:06:48.034Z,8.40
2023-03-29T00:09:15.773Z,8.40
2023-03-29T00:11:42.901Z,8.40
2023-03-29T00:14:10.697Z,8.40
2023-03-29T00:16:37.916Z,8.40
2023-03-29T00:19:05.171Z,8.40
2023-03-29T00:21:32.413Z,8.40
2023-03-29T00:23:59.554Z,8.40
2023-03-29T00:26:26.961Z,8.40
2023-03-29T00:28:54.558Z,8.40
2023-03-29T00:31:22.027Z,8.40
2023-03-29T00:33:49.194Z,8.40
2023-03-29T00:36:16.339Z,8.40
2023-03-29T00:38:43.567Z,8.40
2023-03-29T00:41:10.844Z,8.40
2023-03-29T00:44:11.710Z,8.40
2023-03-29T00:46:38.916Z,8.40
2023-03-29T00:49:08.975Z,8.40
2023-03-29T00:51:37.534Z,8.40
2023-03-29T00:54:09.547Z,8.40
2023-03-29T00:56:38.757Z,8.30
2023-03-29T00:59:09.674Z,8.40
2023-03-29T01:01:42.870Z,8.40
2023-03-29T01:04:18.248Z,8.40
2023-03-29T01:06:50.833Z,8.40
2023-03-29T01:09:19.784Z,8.40
2023-03-29T01:11:50.238Z,8.40
2023-03-29T01:14:34.016Z,8.40
2023-03-29T01:17:02.176Z,8.40
2023-03-29T01:19:32.166Z,8.40
2023-03-29T01:22:13.721Z,8.40
2023-03-29T01:25:04.045Z,8.40
2023-03-29T01:27:34.306Z,8.40
2023-03-29T01:30:16.268Z,8.40
2023-03-29T01:32:50.703Z,8.40
2023-03-29T01:35:22.641Z,8.40
2023-03-29T01:37:56.988Z,8.40
2023-03-29T01:40:27.281Z,8.40
2023-03-29T01:43:00.868Z,8.40
2023-03-29T01:45:42.449Z,8.40
2023-03-29T01:48:09.855Z,8.50
2023-03-29T01:50:45.071Z,8.50
2023-03-29T01:53:18.273Z,8.40
2023-03-29T01:55:49.677Z,8.50
2023-03-29T01:58:17.709Z,8.50
2023-03-29T02:00:46.703Z,8.50
2023-03-29T02:03:15.093Z,8.50
2023-03-29T02:05:42.795Z,8.50
2023-03-29T02:08:11.781Z,8.50
2023-03-29T02:10:39.332Z,8.50
2023-03-29T02:13:06.480Z,8.50
2023-03-29T02:15:33.735Z,8.50
2023-03-29T02:18:04.217Z,8.50
2023-03-29T02:20:39.382Z,8.50
2023-03-29T02:23:14.779Z,8.50
2023-03-29T02:25:43.157Z,8.50
2023-03-29T02:28:10.688Z,8.50
2023-03-29T02:30:42.294Z,8.50
2023-03-29T02:33:22.080Z,8.50
2023-03-29T02:35:53.462Z,8.50
2023-03-29T02:38:21.377Z,8.50
2023-03-29T02:40:48.717Z,8.50
2023-03-29T02:43:17.195Z,8.50
2023-03-29T02:45:44.820Z,8.50
2023-03-29T02:48:16.345Z,8.50
2023-03-29T02:50:45.334Z,8.50
2023-03-29T02:53:17.429Z,8.50
2023-03-29T02:55:47.097Z,8.50
2023-03-29T02:58:15.665Z,8.50
2023-03-29T03:00:46.830Z,8.50
2023-03-29T03:03:15.679Z,8.50
2023-03-29T03:05:45.539Z,8.50
2023-03-29T03:08:12.648Z,8.50
2023-03-29T03:10:40.268Z,8.50
2023-03-29T03:13:07.461Z,8.50
2023-03-29T03:15:35.983Z,8.50
2023-03-29T03:18:04.178Z,8.50
2023-03-29T03:20:32.420Z,8.50
2023-03-29T03:23:01.346Z,8.60
2023-03-29T03:25:28.850Z,8.50
2023-03-29T03:27:56.117Z,8.50
2023-03-29T03:30:25.676Z,8.50
2023-03-29T03:33:11.891Z,8.60
2023-03-29T03:35:51.057Z,8.50
2023-03-29T03:38:18.229Z,8.60
2023-03-29T03:40:56.555Z,8.50
2023-03-29T03:43:24.129Z,8.50
2023-03-29T03:45:51.775Z,8.50
2023-03-29T03:48:23.438Z,8.50
2023-03-29T03:51:07.932Z,8.50
2023-03-29T03:53:35.901Z,8.60
2023-03-29T03:56:23.695Z,8.50
2023-03-29T03:59:11.072Z,8.60
2023-03-29T04:01:48.919Z,8.60
2023-03-29T04:04:23.438Z,8.60
2023-03-29T04:07:25.629Z,8.60
2023-03-29T04:10:27.517Z,8.60
2023-03-29T04:13:27.387Z,8.60
2023-03-29T04:16:13.240Z,8.60
2023-03-29T04:18:41.043Z,8.60
2023-03-29T04:21:08.374Z,8.60
2023-03-29T04:23:36.375Z,8.60
2023-03-29T04:26:03.873Z,8.60
2023-03-29T04:28:45.177Z,8.60
2023-03-29T04:31:17.133Z,8.60
2023-03-29T04:33:51.810Z,8.60
2023-03-29T04:36:20.783Z,8.60
2023-03-29T04:38:48.985Z,8.60
2023-03-29T04:41:19.294Z,8.70
2023-03-29T04:44:12.568Z,8.70
2023-03-29T04:46:40.429Z,8.70
2023-03-29T04:49:24.602Z,8.70
2023-03-29T04:51:53.628Z,8.70
2023-03-29T04:54:24.324Z,8.70
2023-03-29T04:57:06.183Z,8.70
2023-03-29T04:59:44.526Z,8.70
2023-03-29T05:02:37.818Z,8.70
2023-03-29T05:05:05.221Z,8.70
2023-03-29T05:07:33.020Z,8.70
2023-03-29T05:10:00.221Z,8.70
2023-03-29T05:12:27.654Z,8.70
2023-03-29T05:14:57.559Z,8.70
2023-03-29T05:17:27.662Z,8.70
2023-03-29T05:20:01.119Z,8.80
2023-03-29T05:22:29.905Z,8.70
2023-03-29T05:24:57.707Z,8.70
2023-03-29T05:27:25.674Z,8.80
2023-03-29T05:30:03.018Z,8.80
2023-03-29T05:33:05.967Z,8.80
2023-03-29T05:35:36.124Z,8.80
2023-03-29T05:38:07.167Z,8.80
2023-03-29T05:40:35.912Z,8.80
2023-03-29T05:43:27.217Z,8.80
2023-03-29T05:45:55.035Z,8.80
2023-03-29T05:48:23.478Z,8.80
2023-03-29T05:50:51.475Z,8.90
2023-03-29T05:53:19.724Z,8.90
2023-03-29T05:55:47.472Z,8.90
2023-03-29T05:58:20.702Z,8.90
2023-03-29T06:00:49.880Z,8.90
2023-03-29T06:03:34.117Z,8.90
2023-03-29T06:06:02.637Z,9.00
2023-03-29T06:08:31.250Z,8.90
2023-03-29T06:11:18.604Z,9.00
2023-03-29T06:14:04.717Z,9.00
2023-03-29T06:16:32.714Z,9.00
2023-03-29T06:18:59.951Z,9.00
2023-03-29T06:21:28.704Z,9.10
2023-03-29T06:23:56.516Z,9.10
2023-03-29T06:26:24.294Z,9.10
2023-03-29T06:28:52.441Z,9.10
2023-03-29T06:31:21.319Z,9.20
2023-03-29T06:33:51.569Z,9.20
2023-03-29T06:36:37.955Z,9.20
2023-03-29T06:39:08.771Z,9.20
2023-03-29T06:41:55.613Z,9.20
2023-03-29T06:44:43.229Z,9.30
2023-03-29T06:47:18.754Z,9.30
2023-03-29T06:49:45.936Z,9.30
2023-03-29T06:52:35.612Z,9.30
2023-03-29T06:55:03.261Z,9.40
2023-03-29T06:57:30.893Z,9.40
2023-03-29T06:59:58.353Z,9.50
2023-03-29T07:02:51.371Z,9.50
2023-03-29T07:05:18.883Z,9.60
2023-03-29T07:07:57.150Z,9.70
2023-03-29T07:10:45.897Z,9.70
2023-03-29T07:13:33.220Z,9.70
2023-03-29T07:16:04.167Z,9.80
2023-03-29T07:18:41.785Z,9.80
2023-03-29T07:21:11.823Z,9.90
2023-03-29T07:23:39.483Z,9.90
2023-03-29T07:26:10.680Z,10.00
2023-03-29T07:28:39.581Z,10.10
2023-03-29T07:31:11.688Z,10.10
2023-03-29T07:33:45.520Z,10.20
2023-03-29T07:36:13.666Z,10.20
2023-03-29T07:38:41.911Z,10.30
2023-03-29T07:41:19.023Z,10.40
2023-03-29T07:44:05.083Z,10.40
2023-03-29T07:46:33.334Z,10.50
2023-03-29T07:49:00.709Z,10.50
2023-03-29T07:51:27.930Z,10.60
2023-03-29T07:54:03.937Z,10.60
2023-03-29T07:56:51.329Z,10.60
2023-03-29T07:59:38.716Z,10.70
2023-03-29T08:02:13.826Z,10.70
2023-03-29T08:04:46.295Z,10.80
2023-03-29T08:07:19.343Z,10.80
2023-03-29T08:10:04.750Z,10.90
2023-03-29T08:12:48.289Z,10.90
2023-03-29T08:15:17.123Z,11.00
2023-03-29T08:17:45.024Z,11.00
2023-03-29T08:20:13.934Z,11.10
2023-03-29T08:22:43.654Z,11.10
2023-03-29T08:25:28.884Z,11.20
2023-03-29T08:27:57.475Z,11.20
2023-03-29T08:30:39.943Z,11.30
2023-03-29T08:33:07.009Z,11.40
2023-03-29T08:35:34.211Z,11.40
2023-03-29T08:38:14.485Z,11.50
2023-03-29T08:40:42.495Z,11.50
2023-03-29T08:43:32.148Z,11.60
2023-03-29T08:46:34.402Z,11.70
2023-03-29T08:49:12.867Z,11.80
2023-03-29T08:51:46.112Z,11.80
2023-03-29T08:54:15.932Z,11.90
2023-03-29T08:57:28.322Z,12.00
2023-03-29T09:00:02.104Z,12.00
2023-03-29T09:02:32.417Z,12.00
2023-03-29T09:05:15.104Z,12.00
2023-03-29T09:07:45.944Z,12.10
2023-03-29T09:10:16.179Z,12.20
2023-03-29T09:12:50.241Z,12.20
2023-03-29T09:15:30.559Z,12.30
2023-03-29T09:18:19.008Z,12.40
2023-03-29T09:21:07.050Z,12.40
2023-03-29T09:23:49.757Z,12.50
2023-03-29T09:26:38.897Z,12.60
2023-03-29T09:29:37.833Z,12.70
2023-03-29T09:32:12.452Z,12.80
2023-03-29T09:34:45.087Z,12.90
2023-03-29T09:37:30.698Z,13.00
2023-03-29T09:39:58.295Z,13.10
2023-03-29T09:42:39.777Z,13.20
2023-03-29T09:45:10.818Z,13.30
2023-03-29T09:47:50.552Z,13.40
2023-03-29T09:50:34.119Z,13.40
2023-03-29T09:53:05.646Z,13.50
2023-03-29T09:55:39.826Z,13.60
2023-03-29T09:58:15.478Z,13.60
2023-03-29T10:00:48.504Z,13.70
2023-03-29T10:03:23.994Z,13.80
2023-03-29T10:06:03.159Z,13.90
2023-03-29T10:08:41.889Z,14.00
2023-03-29T10:11:13.679Z,14.00
2023-03-29T10:13:46.045Z,14.00
2023-03-29T10:16:23.703Z,14.10
2023-03-29T10:18:51.236Z,14.10
2023-03-29T10:21:23.824Z,14.10
2023-03-29T10:23:58.087Z,14.10
2023-03-29T10:26:29.008Z,14.10
2023-03-29T10:28:57.429Z,14.10
2023-03-29T10:31:25.085Z,14.10
2023-03-29T10:33:58.619Z,14.00
2023-03-29T10:36:26.896Z,14.00
2023-03-29T10:38:57.113Z,14.00
2023-03-29T10:41:25.545Z,14.00
2023-03-29T10:43:53.002Z,14.00
2023-03-29T10:46:27.929Z,13.90
2023-03-29T10:49:00.465Z,13.90
2023-03-29T10:51:30.190Z,13.90
2023-03-29T10:53:58.739Z,13.90
2023-03-29T10:56:29.046Z,14.00
2023-03-29T10:59:14.715Z,14.00
2023-03-29T11:01:44.713Z,14.10
2023-03-29T11:04:32.115Z,14.10
2023-03-29T11:07:18.166Z,14.10
2023-03-29T11:10:01.043Z,14.20
2023-03-29T11:12:39.654Z,14.30
2023-03-29T11:15:15.947Z,14.40
2023-03-29T11:17:51.395Z,14.50
2023-03-29T11:20:18.556Z,14.60
2023-03-29T11:23:12.184Z,14.70
2023-03-29T11:25:45.423Z,14.80
2023-03-29T11:28:29.524Z,14.90
2023-03-29T11:31:06.980Z,15.00
2023-03-29T11:33:36.899Z,15.10
2023-03-29T11:36:11.941Z,15.30
2023-03-29T11:38:44.640Z,15.40
2023-03-29T11:41:19.017Z,15.50
2023-03-29T11:43:58.994Z,15.60
2023-03-29T11:46:34.673Z,15.70
2023-03-29T11:49:20.490Z,15.80
2023-03-29T11:51:51.161Z,15.90
2023-03-29T11:54:20.215Z,16.00
2023-03-29T11:56:47.321Z,16.00
2023-03-29T11:59:22.432Z,16.10
2023-03-29T12:01:52.955Z,16.10
2023-03-29T12:04:24.957Z,16.20
2023-03-29T12:06:52.572Z,16.20
2023-03-29T12:09:38.157Z,16.30
2023-03-29T12:12:10.139Z,16.30
2023-03-29T12:14:56.106Z,16.30
2023-03-29T12:17:34.410Z,16.20
2023-03-29T12:20:18.111Z,16.20
2023-03-29T12:22:49.279Z,16.20
2023-03-29T12:25:18.816Z,16.20
2023-03-29T12:27:52.569Z,16.20
2023-03-29T12:30:23.960Z,16.20
2023-03-29T12:32:51.247Z,16.30
2023-03-29T12:35:56.419Z,16.30
2023-03-29T12:38:48.266Z,16.40
2023-03-29T12:41:37.423Z,16.50
2023-03-29T12:44:09.533Z,16.60
2023-03-29T12:46:47.356Z,16.70
2023-03-29T12:49:26.996Z,16.80
2023-03-29T12:51:55.314Z,16.80
2023-03-29T12:54:25.636Z,16.90
2023-03-29T12:56:55.146Z,16.90
2023-03-29T12:59:27.494Z,17.00
2023-03-29T13:01:59.330Z,17.10
2023-03-29T13:04:44.986Z,17.10
2023-03-29T13:07:15.253Z,17.10
2023-03-29T13:09:48.357Z,17.10
2023-03-29T13:12:15.961Z,17.20
2023-03-29T13:14:53.716Z,17.20
2023-03-29T13:17:39.953Z,17.20
2023-03-29T13:20:26.080Z,17.20
2023-03-29T13:23:12.017Z,17.20
2023-03-29T13:25:56.658Z,17.20
2023-03-29T13:28:23.863Z,17.20
2023-03-29T13:31:00.216Z,17.10
2023-03-29T13:33:27.549Z,17.10
2023-03-29T13:35:54.830Z,17.10
2023-03-29T13:38:28.841Z,17.10
2023-03-29T13:41:04.304Z,17.10
2023-03-29T13:43:51.929Z,17.00
2023-03-29T13:46:21.268Z,17.00
2023-03-29T13:48:51.859Z,17.00
2023-03-29T13:51:18.913Z,17.00
2023-03-29T13:53:57.273Z,17.00
2023-03-29T13:56:34.407Z,16.90
2023-03-29T13:59:17.193Z,16.90
2023-03-29T14:01:54.655Z,16.90
2023-03-29T14:04:25.012Z,16.90
2023-03-29T14:06:54.224Z,16.90
2023-03-29T14:09:28.356Z,16.90
2023-03-29T14:11:56.680Z,16.90
2023-03-29T14:14:25.796Z,16.90
2023-03-29T14:16:54.285Z,17.00
2023-03-29T14:19:32.286Z,17.10
2023-03-29T14:22:00.616Z,17.10
2023-03-29T14:24:41.222Z,17.20
2023-03-29T14:27:11.725Z,17.20
2023-03-29T14:29:38.892Z,17.30
2023-03-29T14:32:13.539Z,17.30
2023-03-29T14:34:40.877Z,17.40
2023-03-29T14:37:10.810Z,17.40
2023-03-29T14:39:38.417Z,17.40
2023-03-29T14:42:11.002Z,17.40
2023-03-29T14:44:38.245Z,17.40
2023-03-29T14:47:05.639Z,17.40
2023-03-29T14:49:32.907Z,17.40
2023-03-29T14:52:00.466Z,17.40
2023-03-29T14:54:29.075Z,17.40
2023-03-29T14:56:56.381Z,17.40
2023-03-29T14:59:26.077Z,17.40
2023-03-29T15:01:53.588Z,17.40
2023-03-29T15:04:21.053Z,17.40
2023-03-29T15:06:50.888Z,17.50
2023-03-29T15:09:20.707Z,17.40
2023-03-29T15:11:51.953Z,17.40
2023-03-29T15:14:19.827Z,17.40
2023-03-29T15:16:48.370Z,17.40
2023-03-29T15:19:19.808Z,17.40
2023-03-29T15:21:50.200Z,17.40
2023-03-29T15:24:28.424Z,17.40
2023-03-29T15:27:14.706Z,17.30
2023-03-29T15:29:42.985Z,17.30
2023-03-29T15:32:11.001Z,17.30
2023-03-29T15:34:38.621Z,17.30
2023-03-29T15:37:05.734Z,17.20
2023-03-29T15:39:33.048Z,17.20
2023-03-29T15:42:00.181Z,17.20
2023-03-29T15:44:29.209Z,17.10
2023-03-29T15:46:57.957Z,17.10
2023-03-29T15:49:25.652Z,17.10
2023-03-29T15:51:56.858Z,17.10
2023-03-29T15:54:24.876Z,17.10
2023-03-29T15:56:53.699Z,17.10
2023-03-29T15:59:21.746Z,17.10
2023-03-29T16:01:49.254Z,17.10
2023-03-29T16:04:17.551Z,17.00
2023-03-29T16:06:45.818Z,17.00
2023-03-29T16:09:13.076Z,16.90
2023-03-29T16:11:41.436Z,16.90
2023-03-29T16:14:17.921Z,16.80
2023-03-29T16:16:45.047Z,16.80
2023-03-29T16:19:12.418Z,16.70
2023-03-29T16:21:40.772Z,16.70
2023-03-29T16:24:11.867Z,16.60
2023-03-29T16:26:39.326Z,16.60
2023-03-29T16:29:06.983Z,16.60
2023-03-29T16:31:34.272Z,16.50
2023-03-29T16:34:01.608Z,16.50
2023-03-29T16:36:30.667Z,16.40
2023-03-29T16:38:58.113Z,16.40
2023-03-29T16:41:25.864Z,16.40
2023-03-29T16:43:52.895Z,16.30
2023-03-29T16:46:20.054Z,16.30
2023-03-29T16:48:47.281Z,16.30
2023-03-29T16:51:14.481Z,16.20
2023-03-29T16:53:42.170Z,16.20
2023-03-29T16:56:09.322Z,16.20
2023-03-29T16:58:38.614Z,16.10
2023-03-29T17:01:16.153Z,16.10
2023-03-29T17:03:43.658Z,16.00
2023-03-29T17:06:11.532Z,16.00
2023-03-29T17:08:39.146Z,15.90
2023-03-29T17:11:07.233Z,15.90
2023-03-29T17:13:34.380Z,15.80
2023-03-29T17:16:01.896Z,15.70
2023-03-29T17:18:29.541Z,15.70
2023-03-29T17:20:57.757Z,15.60
2023-03-29T17:23:25.677Z,15.50
2023-03-29T17:25:54.149Z,15.50
2023-03-29T17:28:21.548Z,15.40
2023-03-29T17:30:48.749Z,15.40
2023-03-29T17:33:15.891Z,15.30
2023-03-29T17:35:44.061Z,15.20
2023-03-29T17:38:11.984Z,15.20
2023-03-29T17:40:39.431Z,15.10
2023-03-29T17:43:06.633Z,15.10
2023-03-29T17:45:35.546Z,15.00
2023-03-29T17:48:05.534Z,15.00
2023-03-29T17:50:33.567Z,14.90
2023-03-29T17:53:00.673Z,14.90
2023-03-29T17:55:27.954Z,14.80
2023-03-29T17:57:55.364Z,14.80
2023-03-29T18:00:22.595Z,14.80
2023-03-29T18:02:49.741Z,14.70
2023-03-29T18:05:17.016Z,14.70
2023-03-29T18:07:44.236Z,14.60
2023-03-29T18:10:12.726Z,14.60
2023-03-29T18:12:40.419Z,14.50
2023-03-29T18:15:08.118Z,14.50
2023-03-29T18:17:35.991Z,14.50
2023-03-29T18:20:09.998Z,14.40
2023-03-29T18:22:38.349Z,14.40
2023-03-29T18:25:07.163Z,14.40
2023-03-29T18:27:34.402Z,14.40
2023-03-29T18:30:01.855Z,14.30
2023-03-29T18:32:29.027Z,14.30
2023-03-29T18:34:56.145Z,14.30
2023-03-29T18:37:23.356Z,14.20
2023-03-29T18:39:50.810Z,14.20
2023-03-29T18:42:17.958Z,14.20
2023-03-29T18:44:45.249Z,14.20
2023-03-29T18:47:12.494Z,14.10
2023-03-29T18:49:41.307Z,14.10
2023-03-29T18:52:09.223Z,14.10
2023-03-29T18:54:36.580Z,14.00
2023-03-29T18:57:06.358Z,14.00
2023-03-29T18:59:36.091Z,14.00
2023-03-29T19:02:03.518Z,13.90
2023-03-29T19:04:30.948Z,13.90
2023-03-29T19:06:59.911Z,13.90
2023-03-29T19:09:28.028Z,13.90
2023-03-29T19:11:55.516Z,13.80
2023-03-29T19:14:27.416Z,13.90
2023-03-29T19:16:54.652Z,13.80
2023-03-29T19:19:22.621Z,13.80
2023-03-29T19:21:50.184Z,13.80
2023-03-29T19:24:17.998Z,13.80
2023-03-29T19:26:45.800Z,13.80
2023-03-29T19:29:13.160Z,13.80
2023-03-29T19:31:40.429Z,13.80
2023-03-29T19:34:11.339Z,13.80
2023-03-29T19:36:39.063Z,13.80
2023-03-29T19:39:07.378Z,13.80
2023-03-29T19:41:34.527Z,13.80
2023-03-29T19:44:01.981Z,13.80
2023-03-29T19:46:29.467Z,13.80
2023-03-29T19:48:56.716Z,13.80
2023-03-29T19:51:26.920Z,13.80
2023-03-29T19:53:55.195Z,13.80
2023-03-29T19:56:23.672Z,13.80
2023-03-29T19:58:51.221Z,13.80
2023-03-29T20:01:21.090Z,13.80
2023-03-29T20:03:49.297Z,13.80
2023-03-29T20:06:17.394Z,13.80
2023-03-29T20:08:45.300Z,13.70
2023-03-29T20:11:13.800Z,13.70
2023-03-29T20:13:41.709Z,13.80
2023-03-29T20:16:10.303Z,13.80
2023-03-29T20:18:38.464Z,13.70
2023-03-29T20:21:06.453Z,13.70
2023-03-29T20:23:34.132Z,13.70
2023-03-29T20:26:01.505Z,13.70
2023-03-29T20:28:29.419Z,13.70
2023-03-29T20:30:56.566Z,13.70
2023-03-29T20:33:23.681Z,13.70
2023-03-29T20:35:50.959Z,13.70
2023-03-29T20:38:18.202Z,13.70
2023-03-29T20:40:45.378Z,13.60
2023-03-29T20:43:19.013Z,13.60
2023-03-29T20:45:54.010Z,13.60
2023-03-29T20:48:24.434Z,13.60
2023-03-29T20:50:51.653Z,13.60
2023-03-29T20:53:20.790Z,13.60
2023-03-29T20:55:48.344Z,13.60
2023-03-29T20:58:16.115Z,13.60
2023-03-29T21:00:43.953Z,13.60
2023-03-29T21:03:11.342Z,13.60
2023-03-29T21:05:39.074Z,13.60
2023-03-29T21:08:06.426Z,13.60
2023-03-29T21:10:33.592Z,13.60
2023-03-29T21:13:02.758Z,13.60
2023-03-29T21:15:31.178Z,13.60
2023-03-29T21:17:58.623Z,13.60
2023-03-29T21:20:25.881Z,13.60
2023-03-29T21:22:53.085Z,13.60
2023-03-29T21:25:20.258Z,13.60
2023-03-29T21:27:47.579Z,13.60
2023-03-29T21:30:14.823Z,13.60
2023-03-29T21:32:42.101Z,13.60
2023-03-29T21:35:09.561Z,13.60
2023-03-29T21:37:37.081Z,13.60
2023-03-29T21:40:07.281Z,13.60
2023-03-29T21:42:34.692Z,13.60
2023-03-29T21:45:01.923Z,13.60
2023-03-29T21:47:29.177Z,13.60
2023-03-29T21:49:56.540Z,13.60
2023-03-29T21:52:23.699Z,13.60
2023-03-29T21:54:50.951Z,13.60
2023-03-29T21:57:18.153Z,13.60
2023-03-29T21:59:45.489Z,13.60
2023-03-29T22:02:12.606Z,13.60
2023-03-29T22:04:39.787Z,13.60
2023-03-29T22:07:07.212Z,13.60
2023-03-29T22:09:35.430Z,13.60
2023-03-29T22:12:03.214Z,13.60
2023-03-29T22:14:31.716Z,13.60
2023-03-29T22:16:59.043Z,13.60
2023-03-29T22:19:26.271Z,13.60
2023-03-29T22:21:53.352Z,13.60
2023-03-29T22:24:20.489Z,13.60
2023-03-29T22:26:48.246Z,13.60
2023-03-29T22:29:15.308Z,13.60
2023-03-29T22:31:42.438Z,13.60
2023-03-29T22:34:09.568Z,13.60
2023-03-29T22:36:37.079Z,13.60
2023-03-29T22:39:04.426Z,13.60
2023-03-29T22:41:31.581Z,13.60
2023-03-29T22:43:59.364Z,13.60
2023-03-29T22:46:27.387Z,13.60
2023-03-29T22:48:54.611Z,13.60
2023-03-29T22:51:21.804Z,13.60
2023-03-29T22:53:48.897Z,13.60
2023-03-29T22:56:16.598Z,13.60
2023-03-29T22:58:44.017Z,13.60
2023-03-29T23:01:11.553Z,13.60
2023-03-29T23:03:38.685Z,13.60
2023-03-29T23:06:06.106Z,13.60
2023-03-29T23:08:33.788Z,13.60
2023-03-29T23:11:01.667Z,13.60
2023-03-29T23:13:29.598Z,13.60
2023-03-29T23:15:58.204Z,13.60
2023-03-29T23:18:25.958Z,13.60
2023-03-29T23:20:54.843Z,13.60
2023-03-29T23:23:22.854Z,13.60
2023-03-29T23:25:51.005Z,13.60
2023-03-29T23:28:21.732Z,13.60
2023-03-29T23:30:56.449Z,13.60
2023-03-29T23:33:25.786Z,13.60
2023-03-29T23:35:53.498Z,13.60
2023-03-29T23:38:20.811Z,13.70
2023-03-29T23:40:55.420Z,13.70
2023-03-29T23:43:22.522Z,13.70
2023-03-29T23:45:55.760Z,13.60
2023-03-29T23:48:23.976Z,13.70
2023-03-29T23:50:51.221Z,13.70
2023-03-29T23:53:20.022Z,13.70
2023-03-29T23:55:48.391Z,13.60
2023-03-29T23:58:16.848Z,13.70
